Faucett, Missouri
Current Conditions -  °F | °C
As of 10:53 AM on Thursday 27 Nov 2014 (Local Time) from KSTJ Reporting Station
Overcast Overcast  
Wind Chill: 17°   Ceiling: 7000
Heat Index: 24°   Visibility: 10mi
Dew Point: 16°   Wind: 6mph
Humidity: 71%   Direction: 20°NNE
Pressure: 30.55"   Gusts: NA
Location:  39.6°N, 94.8°W
Report Text: KSTJ 271653Z 02005KT 10SM OVC070 M04/M09 A3055 RMK AO2 SLP356 T10441089
Loading
Personal Weather Stations






























Interactive Weather Map New forecast layout! Learn more

10-Day Weather Forecast

Advertisements
Track Severe Weather on mobile